Details From KXMR - CAPE CANAVERAL AFS SKID STRIP
To MYGF - Grand Bahama Intl
Flight Number -
Tags decoded
Created
Modified
Stats Distance 152 nm / 281 km
Max Altitude 0 ft / 0 m
Waypoints 2
Social Downloads 1
Likes 0
Share VATSIM

Download

Looking for another format? Having issues loading an existing format? Contact us
Advertisement - Login to hide

Notes

Requested: KXMR MYGF

Route

KXMR MYGF

ID Type Via Altitude Latitude Longitude Leg Dist Tot Dist Heading (true) Name
O KXMR APT - 0 ft / 0 m 28.46759˚ -80.56661˚ - 0 nm - CAPE CANAVERAL AFS SKID STRIP
O MYGF APT - 0 ft / 0 m 26.55868˚ -78.69555˚ 151 nm 151 nm 139° / 139° Grand Bahama Intl

Altitude Profile

Advertisement - Login to hide

KXMR

Details ICAO KXMR
Name CAPE CANAVERAL AFS SKID STRIP
Region United States
Timezone America/New_York (UTC-5.0)
Stats Elevation 10 ft / 3 m (AMSL)
Location 28.467586° -80.566615°
Runways 1
Magnetic Variation 6.873° W

METAR

KXMR 181358Z AUTO 19006KT 10SM CLR 21/21 A3023 RMK AO2 SLP240 T02130208 $

Decode

TAF

Not found

Departure Runways

ID Width Length Bearing (true) Bearing (mag) Surface Threshold Offset Overrun Length
13 200 ft / 61 m 10,002 ft / 3,049 m 127.93° 134.80° Asphalt 0 ft / 0 m 0 ft / 0 m
31 200 ft / 61 m 10,002 ft / 3,049 m 307.94° 314.81° Asphalt 0 ft / 0 m 0 ft / 0 m

MYGF

Details ICAO MYGF (FPO)
Name Grand Bahama Intl
Region Bahamas
Timezone America/Nassau (UTC-5.0)
Stats Elevation 7 ft / 2 m (AMSL)
Location 26.558684° -78.695553°
Runways 1
Magnetic Variation 7.726° W

METAR

MYGF 181400Z 00000KT 9999 FEW025 25/21 A3025

Decode

TAF

TAF TAF MYGF 181115Z 1812/1912 VRB02KT 9999 FEW020 SCT040 BECMG 1818/1820 11010KT

Decode

Destination Runways

ID Width Length Bearing (true) Bearing (mag) Surface Threshold Offset Overrun Length
06 151 ft / 46 m 11,016 ft / 3,358 m 60.89° 68.62° Asphalt 0 ft / 0 m 194 ft / 59 m
24 151 ft / 46 m 11,016 ft / 3,358 m 240.91° 248.64° Asphalt 0 ft / 0 m 200 ft / 61 m

Approach Navaids

Runway Type Ident Frequency Range Bearing (true) Bearing (mag) Slope Elevation
06 Localiser IZFP 109.70 MHz 18 nm / 33 km 60.91° 68.63° - 7 ft / 2 m (AMSL)
06 Glidescope IZFP 109.70 MHz 10 nm / 19 km 60.90° 68.63° 3.00° 7 ft / 2 m (AMSL)